GBYDGOOY

Guest
Details From GBYD - Banjul Intl
To GOOY - Dakar Leopold Sedar Senghor Intl
Flight Number -
Tags generated
Created
Modified
Stats Distance 98 nm / 182 km
Max Altitude 5,500 ft / 1,676 m
Waypoints 4
Social Downloads 4
Likes 0
Share VATSIM

Download

Looking for another format? Having issues loading an existing format? Contact us
Advertisement - Login to hide

Notes

Basic altitude profile: - Ascent Rate: 1800ft/min - Ascent Speed: 250kts - Cruise Altitude: 18000ft - Cruise Speed: 250kts - Descent Rate: 1800ft/min - Descent Speed: 250kts Options: - Use NATs: yes - Use PACOTS: yes - Use low airways: yes - Use high airways: yes

Route

GBYD ND B600F YF GOOY

ID Type Via Altitude Latitude Longitude Leg Dist Tot Dist Heading (true) Name
O GBYD APT - 0 ft / 0 m 13.33796˚ -16.65221˚ - 0 nm - Banjul Intl
ND NDB - 100 ft / 30 m 13.34538˚ -16.65744˚ 0 nm 0 nm 326° / 326° BANJUL NDB
YF VOR B600F (AWY-LO) 5,500 ft / 1,676 m 14.74483˚ -17.47478˚ 96 nm 97 nm 331° / 330° DAKAR VOR-DME
O GOOY APT - 0 ft / 0 m 14.73971˚ -17.49023˚ 0 nm 98 nm 251° / 251° Dakar Leopold Sedar Senghor Intl

Altitude Profile

Advertisement - Login to hide

GBYD

Details ICAO GBYD (BJL)
Name Banjul Intl
Region The Gambia
Timezone Africa/Banjul (UTC+0.0)
Stats Elevation 95 ft / 29 m (AMSL)
Location 13.337960° -16.652206°
Runways 1
Magnetic Variation 7.311° W

METAR

Not found

TAF

TAF TAF GBYD 171130Z 1712/1818 04008KT CAVOK

Decode

Departure Runways

ID Width Length Bearing (true) Bearing (mag) Surface Threshold Offset Overrun Length
14 148 ft / 45 m 11,825 ft / 3,604 m 130.82° 138.13° Asphalt 500 ft / 152 m 197 ft / 60 m
32 148 ft / 45 m 11,825 ft / 3,604 m 310.83° 318.14° Asphalt 500 ft / 152 m 393 ft / 120 m

GOOY

Details ICAO GOOY (DKR)
Name Dakar Leopold Sedar Senghor Intl
Region Senegal
Timezone Africa/Dakar (UTC+0.0)
Stats Elevation 85 ft / 26 m (AMSL)
Location 14.739711° -17.490226°
Runways 2
Magnetic Variation 7.346° W

METAR

GOOY 171300Z 02013KT 8000 NSC 24/14 Q1015

Decode

TAF

TAF GOOY 171130Z 1712/1818 02012KT 8000 NSC= TAF GBYD 171130Z 1712/1818 04008KT CAVOK

Decode

Destination Runways

ID Width Length Bearing (true) Bearing (mag) Surface Threshold Offset Overrun Length
03 98 ft / 30 m 4,921 ft / 1,500 m 22.31° 29.66° Asphalt 0 ft / 0 m 98 ft / 30 m
18 148 ft / 45 m 11,511 ft / 3,509 m 172.57° 179.92° Asphalt 525 ft / 160 m 197 ft / 60 m
21 98 ft / 30 m 4,921 ft / 1,500 m 202.31° 209.66° Asphalt 0 ft / 0 m 1,590 ft / 485 m
36 148 ft / 45 m 11,511 ft / 3,509 m 352.57° 359.92° Asphalt 0 ft / 0 m 197 ft / 60 m

Approach Navaids

Runway Type Ident Frequency Range Bearing (true) Bearing (mag) Slope Elevation
36 Localiser YF 110.30 MHz 18 nm / 33 km 352.33° 359.67° - 65 ft / 20 m (AMSL)
36 Glidescope YF 110.30 MHz 10 nm / 19 km 352.57° 359.92° 3.01° 73 ft / 22 m (AMSL)
36 DME YF 110.30 MHz 18 nm / 33 km - - - 73 ft / 22 m (AMSL)

Popular Alternatives